createdAt,value
2023-03-12T00:00:11.226Z,93.92
2023-03-12T00:02:38.300Z,93.76
2023-03-12T00:05:05.947Z,93.84
2023-03-12T00:07:33.397Z,93.95
2023-03-12T00:10:00.703Z,93.86
2023-03-12T00:12:28.140Z,93.62
2023-03-12T00:14:55.321Z,93.43
2023-03-12T00:17:22.485Z,93.57
2023-03-12T00:19:55.641Z,93.35
2023-03-12T00:22:23.176Z,93.64
2023-03-12T00:24:57.697Z,93.68
2023-03-12T00:27:27.757Z,93.68
2023-03-12T00:29:55.123Z,93.42
2023-03-12T00:32:22.184Z,93.57
2023-03-12T00:34:53.939Z,93.67
2023-03-12T00:37:21.898Z,93.56
2023-03-12T00:39:50.195Z,93.74
2023-03-12T00:42:17.598Z,93.47
2023-03-12T00:44:45.062Z,93.28
2023-03-12T00:47:13.002Z,93.55
2023-03-12T00:49:40.357Z,93.79
2023-03-12T00:52:07.386Z,93.72
2023-03-12T00:54:34.406Z,93.42
2023-03-12T00:57:01.394Z,93.30
2023-03-12T00:59:28.367Z,93.55
2023-03-12T01:01:55.401Z,93.50
2023-03-12T01:04:22.433Z,93.83
2023-03-12T01:06:49.410Z,93.64
2023-03-12T01:09:16.380Z,93.26
2023-03-12T01:11:43.307Z,93.23
2023-03-12T01:14:10.573Z,93.23
2023-03-12T01:16:37.507Z,93.02
2023-03-12T01:19:04.806Z,92.49
2023-03-12T01:21:32.396Z,92.56
2023-03-12T01:23:59.436Z,92.08
2023-03-12T01:26:26.532Z,91.82
2023-03-12T01:28:53.574Z,91.90
2023-03-12T01:31:20.641Z,91.45
2023-03-12T01:33:52.417Z,91.23
2023-03-12T01:36:29.435Z,91.14
2023-03-12T01:38:59.644Z,91.22
2023-03-12T01:41:29.069Z,91.57
2023-03-12T01:43:56.251Z,91.48
2023-03-12T01:46:37.022Z,91.79
2023-03-12T01:49:25.762Z,91.71
2023-03-12T01:52:36.666Z,91.77
2023-03-12T01:55:10.998Z,91.44
2023-03-12T01:57:49.209Z,91.93
2023-03-12T02:00:21.921Z,91.85
2023-03-12T02:02:51.662Z,91.84
2023-03-12T02:05:43.438Z,91.38
2023-03-12T02:08:12.724Z,91.04
2023-03-12T02:10:40.156Z,91.22
2023-03-12T02:13:07.646Z,90.93
2023-03-12T02:15:36.770Z,90.86
2023-03-12T02:18:08.847Z,91.19
2023-03-12T02:20:52.286Z,90.91
2023-03-12T02:23:24.043Z,91.08
2023-03-12T02:25:52.651Z,90.90
2023-03-12T02:28:23.695Z,90.58
2023-03-12T02:30:55.929Z,90.97
2023-03-12T02:33:22.857Z,90.89
2023-03-12T02:35:49.953Z,91.08
2023-03-12T02:38:39.112Z,90.97
2023-03-12T02:41:32.153Z,90.71
2023-03-12T02:44:06.175Z,90.63
2023-03-12T02:46:49.911Z,90.88
2023-03-12T02:49:19.608Z,90.92
2023-03-12T02:51:47.888Z,90.82
2023-03-12T02:54:16.742Z,91.17
2023-03-12T02:56:43.969Z,90.91
2023-03-12T02:59:13.301Z,91.09
2023-03-12T03:01:41.284Z,91.11
2023-03-12T03:04:10.821Z,91.37
2023-03-12T03:06:41.906Z,91.58
2023-03-12T03:09:08.894Z,91.73
2023-03-12T03:11:36.502Z,91.82
2023-03-12T03:14:04.480Z,91.89
2023-03-12T03:16:31.413Z,92.06
2023-03-12T03:18:58.419Z,92.18
2023-03-12T03:21:25.814Z,92.08
2023-03-12T03:23:52.878Z,92.13
2023-03-12T03:26:22.913Z,92.08
2023-03-12T03:28:50.565Z,92.59
2023-03-12T03:31:18.076Z,92.36
2023-03-12T03:33:45.338Z,92.75
2023-03-12T03:36:14.941Z,92.68
2023-03-12T03:38:46.979Z,92.98
2023-03-12T03:41:14.123Z,92.96
2023-03-12T03:43:41.081Z,93.00
2023-03-12T03:46:08.132Z,92.77
2023-03-12T03:48:35.123Z,92.55
2023-03-12T03:51:07.401Z,93.08
2023-03-12T03:53:34.751Z,93.38
2023-03-12T03:56:14.060Z,92.92
2023-03-12T03:58:41.046Z,93.18
2023-03-12T04:01:08.577Z,93.32
2023-03-12T04:03:35.880Z,93.48
2023-03-12T04:06:05.904Z,93.53
2023-03-12T04:08:35.529Z,93.67
2023-03-12T04:11:20.554Z,93.58
2023-03-12T04:13:48.474Z,93.87
2023-03-12T04:16:16.619Z,93.96
2023-03-12T04:18:44.472Z,94.06
2023-03-12T04:21:13.708Z,93.87
2023-03-12T04:23:40.743Z,93.87
2023-03-12T04:26:08.299Z,94.42
2023-03-12T04:28:36.226Z,94.24
2023-03-12T04:31:07.281Z,94.43
2023-03-12T04:33:37.933Z,94.29
2023-03-12T04:36:05.912Z,94.23
2023-03-12T04:38:33.500Z,94.49
2023-03-12T04:41:09.086Z,94.66
2023-03-12T04:43:36.708Z,94.64
2023-03-12T04:46:05.093Z,94.97
2023-03-12T04:48:32.588Z,95.03
2023-03-12T04:50:59.533Z,95.02
2023-03-12T04:53:26.567Z,95.12
2023-03-12T04:55:53.805Z,94.87
2023-03-12T04:58:22.146Z,95.31
2023-03-12T05:00:50.474Z,95.59
2023-03-12T05:03:18.353Z,95.22
2023-03-12T05:05:45.361Z,95.46
2023-03-12T05:08:12.282Z,95.84
2023-03-12T05:10:39.525Z,95.79
2023-03-12T05:13:18.682Z,95.79
2023-03-12T05:15:47.625Z,96.08
2023-03-12T05:18:15.008Z,96.17
2023-03-12T05:20:42.025Z,96.41
2023-03-12T05:23:09.278Z,96.24
2023-03-12T05:25:40.528Z,96.28
2023-03-12T05:28:08.201Z,96.85
2023-03-12T05:30:35.241Z,96.62
2023-03-12T05:33:02.222Z,96.73
2023-03-12T05:35:29.173Z,96.82
2023-03-12T05:37:56.132Z,96.86
2023-03-12T05:40:23.198Z,97.13
2023-03-12T05:42:50.123Z,96.75
2023-03-12T05:45:17.276Z,97.17
2023-03-12T05:47:44.291Z,97.22
2023-03-12T05:50:12.178Z,97.23
2023-03-12T05:52:39.167Z,97.32
2023-03-12T05:55:07.208Z,97.83
2023-03-12T05:57:34.168Z,98.23
2023-03-12T06:00:01.586Z,99.23
2023-03-12T06:02:28.508Z,99.77
2023-03-12T06:04:58.049Z,99.77
2023-03-12T06:07:25.293Z,99.58
2023-03-12T06:09:52.301Z,99.23
2023-03-12T06:12:19.222Z,98.90
2023-03-12T06:14:46.225Z,98.35
2023-03-12T06:17:13.180Z,97.58
2023-03-12T06:19:40.074Z,96.57
2023-03-12T06:22:07.171Z,95.92
2023-03-12T06:24:34.271Z,94.79
2023-03-12T06:27:01.215Z,93.24
2023-03-12T06:29:28.265Z,92.03
2023-03-12T06:31:56.046Z,90.76
2023-03-12T06:34:23.140Z,88.91
2023-03-12T06:36:50.204Z,87.19
2023-03-12T06:39:17.511Z,84.00
2023-03-12T06:41:44.598Z,82.19
2023-03-12T06:44:11.670Z,81.42
2023-03-12T06:46:38.956Z,79.85
2023-03-12T06:49:06.013Z,78.08
2023-03-12T06:51:33.164Z,76.15
2023-03-12T06:54:02.279Z,73.67
2023-03-12T06:56:30.653Z,71.78
2023-03-12T06:58:58.124Z,71.56
2023-03-12T07:01:25.062Z,70.18
2023-03-12T07:03:51.959Z,67.95
2023-03-12T07:06:22.379Z,66.40
2023-03-12T07:08:49.939Z,66.13
2023-03-12T07:11:18.352Z,65.22
2023-03-12T07:13:45.660Z,63.29
2023-03-12T07:16:13.042Z,62.07
2023-03-12T07:18:40.048Z,61.75
2023-03-12T07:21:07.169Z,61.32
2023-03-12T07:23:34.102Z,60.89
2023-03-12T07:26:01.114Z,60.08
2023-03-12T07:28:28.376Z,59.17
2023-03-12T07:31:04.355Z,57.58
2023-03-12T07:33:31.638Z,57.67
2023-03-12T07:35:59.006Z,57.56
2023-03-12T07:38:26.407Z,57.33
2023-03-12T07:40:56.068Z,56.91
2023-03-12T07:43:25.218Z,55.93
2023-03-12T07:45:53.124Z,54.94
2023-03-12T07:48:20.334Z,54.39
2023-03-12T07:50:48.528Z,53.16
2023-03-12T07:53:16.013Z,51.82
2023-03-12T07:55:46.517Z,51.21
2023-03-12T07:58:15.706Z,50.85
2023-03-12T08:00:42.857Z,50.82
2023-03-12T08:03:10.064Z,50.75
2023-03-12T08:05:37.340Z,49.96
2023-03-12T08:08:04.910Z,49.07
2023-03-12T08:10:32.346Z,48.52
2023-03-12T08:12:59.388Z,48.12
2023-03-12T08:15:26.378Z,48.14
2023-03-12T08:17:53.352Z,47.66
2023-03-12T08:20:20.386Z,47.51
2023-03-12T08:22:47.319Z,47.10
2023-03-12T08:25:14.358Z,47.14
2023-03-12T08:27:41.332Z,47.06
2023-03-12T08:30:09.360Z,46.69
2023-03-12T08:32:36.562Z,46.49
2023-03-12T08:35:05.281Z,46.08
2023-03-12T08:37:32.987Z,46.26
2023-03-12T08:40:00.383Z,45.93
2023-03-12T08:42:27.362Z,45.67
2023-03-12T08:44:54.563Z,45.50
2023-03-12T08:47:21.511Z,45.41
2023-03-12T08:49:48.433Z,45.74
2023-03-12T08:52:15.590Z,46.51
2023-03-12T08:54:42.681Z,46.84
2023-03-12T08:57:09.695Z,47.50
2023-03-12T08:59:36.602Z,48.38
2023-03-12T09:02:03.621Z,49.05
2023-03-12T09:04:30.667Z,49.42
2023-03-12T09:06:57.721Z,49.63
2023-03-12T09:09:24.782Z,49.27
2023-03-12T09:11:51.729Z,48.42
2023-03-12T09:15:02.041Z,48.12
2023-03-12T09:17:06.060Z,47.71
2023-03-12T09:19:33.230Z,46.79
2023-03-12T09:22:00.152Z,46.25
2023-03-12T09:24:27.124Z,45.51
2023-03-12T09:26:54.054Z,44.63
2023-03-12T09:29:21.624Z,43.90
2023-03-12T09:31:48.521Z,43.32
2023-03-12T09:34:15.451Z,42.99
2023-03-12T09:36:42.375Z,43.52
2023-03-12T09:39:09.412Z,44.04
2023-03-12T09:41:40.094Z,44.72
2023-03-12T09:44:38.305Z,44.48
2023-03-12T09:47:30.296Z,45.30
2023-03-12T09:50:15.572Z,45.28
2023-03-12T09:53:21.995Z,45.03
2023-03-12T09:55:53.069Z,44.33
2023-03-12T09:58:32.564Z,44.09
2023-03-12T10:01:08.520Z,44.16
2023-03-12T10:04:22.339Z,44.07
2023-03-12T10:07:27.854Z,44.01
2023-03-12T10:10:03.940Z,43.93
2023-03-12T10:12:47.753Z,43.68
2023-03-12T10:15:34.302Z,44.31
2023-03-12T10:18:08.124Z,45.50
2023-03-12T10:20:35.065Z,45.84
2023-03-12T10:23:23.629Z,44.81
2023-03-12T10:26:16.693Z,45.13
2023-03-12T10:29:06.156Z,45.06
2023-03-12T10:31:45.391Z,45.28
2023-03-12T10:34:28.221Z,45.45
2023-03-12T10:37:02.922Z,46.28
2023-03-12T10:39:29.940Z,47.38
2023-03-12T10:42:00.290Z,47.15
2023-03-12T10:44:29.016Z,47.21
2023-03-12T10:47:08.374Z,46.67
2023-03-12T10:49:37.381Z,47.71
2023-03-12T10:52:16.659Z,47.21
2023-03-12T10:54:47.257Z,47.65
2023-03-12T10:57:16.125Z,47.47
2023-03-12T10:59:47.579Z,47.37
2023-03-12T11:02:40.504Z,46.75
2023-03-12T11:05:50.620Z,46.75
2023-03-12T11:09:15.854Z,47.79
2023-03-12T11:11:47.474Z,48.76
2023-03-12T11:14:29.830Z,48.50
2023-03-12T11:17:21.045Z,48.77
2023-03-12T11:19:47.976Z,49.62
2023-03-12T11:22:26.934Z,49.31
2023-03-12T11:25:00.477Z,49.20
2023-03-12T11:27:48.093Z,49.03
2023-03-12T11:30:24.084Z,49.35
2023-03-12T11:32:53.234Z,49.54
2023-03-12T11:35:57.272Z,48.75
2023-03-12T11:38:35.751Z,48.71
2023-03-12T11:41:34.271Z,48.96
2023-03-12T11:44:18.553Z,49.24
2023-03-12T11:47:21.705Z,49.53
2023-03-12T11:50:36.336Z,49.39
2023-03-12T11:53:56.263Z,49.86
2023-03-12T11:56:30.411Z,50.35
2023-03-12T11:59:46.886Z,50.15
2023-03-12T12:02:41.606Z,50.30
2023-03-12T12:05:26.418Z,50.17
2023-03-12T12:08:05.041Z,50.28
2023-03-12T12:11:11.454Z,49.23
2023-03-12T12:14:02.827Z,49.70
2023-03-12T12:17:00.354Z,49.34
2023-03-12T12:20:09.231Z,49.50
2023-03-12T12:22:46.465Z,49.25
2023-03-12T12:25:19.852Z,49.84
2023-03-12T12:29:06.982Z,48.91
2023-03-12T12:31:56.165Z,48.32
2023-03-12T12:34:49.152Z,48.01
2023-03-12T12:37:40.888Z,47.89
2023-03-12T12:40:25.393Z,47.62
2023-03-12T12:43:16.112Z,47.61
2023-03-12T12:45:45.090Z,47.89
2023-03-12T12:48:32.713Z,47.40
2023-03-12T12:51:02.117Z,47.45
2023-03-12T12:54:02.963Z,46.52
2023-03-12T12:56:43.952Z,46.69
2023-03-12T12:59:32.922Z,46.84
2023-03-12T13:02:02.837Z,47.49
2023-03-12T13:04:37.594Z,47.52
2023-03-12T13:07:13.565Z,47.39
2023-03-12T13:09:45.816Z,48.26
2023-03-12T13:12:18.660Z,47.92
2023-03-12T13:14:46.958Z,47.88
2023-03-12T13:17:34.268Z,47.59
2023-03-12T13:20:13.504Z,47.99
2023-03-12T13:23:00.317Z,48.19
2023-03-12T13:25:46.002Z,48.23
2023-03-12T13:28:32.550Z,49.13
2023-03-12T13:31:01.995Z,49.50
2023-03-12T13:33:45.361Z,49.79
2023-03-12T13:36:28.283Z,49.69
2023-03-12T13:39:07.715Z,49.73
2023-03-12T13:41:53.561Z,50.37
2023-03-12T13:44:25.235Z,50.62
2023-03-12T13:47:29.663Z,50.48
2023-03-12T13:50:13.852Z,50.70
2023-03-12T13:52:42.636Z,51.35
2023-03-12T13:55:28.630Z,50.37
2023-03-12T13:58:23.498Z,50.62
2023-03-12T14:00:57.367Z,50.63
2023-03-12T14:03:42.570Z,49.84
2023-03-12T14:06:18.880Z,50.31
2023-03-12T14:09:13.085Z,49.80
2023-03-12T14:11:45.816Z,50.13
2023-03-12T14:14:30.507Z,50.22
2023-03-12T14:17:02.900Z,50.88
2023-03-12T14:19:45.249Z,51.05
2023-03-12T14:22:14.319Z,51.05
2023-03-12T14:24:58.822Z,50.97
2023-03-12T14:27:33.157Z,51.04
2023-03-12T14:30:16.711Z,50.97
2023-03-12T14:32:44.490Z,51.69
2023-03-12T14:35:23.561Z,51.55
2023-03-12T14:38:00.334Z,51.93
2023-03-12T14:41:05.507Z,52.03
2023-03-12T14:43:34.898Z,52.66
2023-03-12T14:46:05.502Z,53.00
2023-03-12T14:48:37.132Z,53.01
2023-03-12T14:51:07.174Z,53.63
2023-03-12T14:53:37.578Z,53.66
2023-03-12T14:56:10.400Z,53.53
2023-03-12T14:58:48.546Z,53.68
2023-03-12T15:01:31.483Z,53.77
2023-03-12T15:04:16.255Z,54.34
2023-03-12T15:06:50.333Z,54.38
2023-03-12T15:09:28.423Z,54.77
2023-03-12T15:12:18.973Z,54.27
2023-03-12T15:14:46.817Z,54.33
2023-03-12T15:17:32.294Z,54.93
2023-03-12T15:20:03.622Z,55.32
2023-03-12T15:22:30.774Z,55.18
2023-03-12T15:25:03.391Z,55.25
2023-03-12T15:27:33.072Z,56.36
2023-03-12T15:30:01.973Z,56.37
2023-03-12T15:32:31.782Z,56.96
2023-03-12T15:35:00.568Z,57.29
2023-03-12T15:37:34.943Z,57.60
2023-03-12T15:40:06.833Z,58.01
2023-03-12T15:42:41.508Z,58.81
2023-03-12T15:45:38.942Z,58.66
2023-03-12T15:48:31.102Z,58.81
2023-03-12T15:50:58.867Z,59.70
2023-03-12T15:53:35.730Z,60.06
2023-03-12T15:56:18.833Z,60.46
2023-03-12T15:58:45.764Z,61.14
2023-03-12T16:01:15.904Z,61.13
2023-03-12T16:03:45.558Z,61.33
2023-03-12T16:06:26.687Z,61.49
2023-03-12T16:08:58.330Z,62.12
2023-03-12T16:11:30.916Z,62.63
2023-03-12T16:14:08.705Z,63.16
2023-03-12T16:16:35.856Z,63.37
2023-03-12T16:19:03.218Z,63.57
2023-03-12T16:21:30.224Z,64.32
2023-03-12T16:23:57.125Z,64.50
2023-03-12T16:26:24.084Z,64.66
2023-03-12T16:28:51.057Z,65.08
2023-03-12T16:31:18.283Z,65.45
2023-03-12T16:33:45.410Z,65.43
2023-03-12T16:36:18.037Z,65.89
2023-03-12T16:38:47.038Z,66.42
2023-03-12T16:41:17.614Z,66.67
2023-03-12T16:43:49.873Z,67.09
2023-03-12T16:46:19.595Z,67.46
2023-03-12T16:48:51.032Z,68.40
2023-03-12T16:51:18.006Z,68.78
2023-03-12T16:53:47.612Z,69.07
2023-03-12T16:56:21.473Z,69.62
2023-03-12T16:58:49.833Z,70.20
2023-03-12T17:01:20.651Z,70.33
2023-03-12T17:03:50.183Z,71.07
2023-03-12T17:06:24.249Z,71.08
2023-03-12T17:08:53.021Z,71.37
2023-03-12T17:11:32.840Z,71.91
2023-03-12T17:14:15.576Z,72.31
2023-03-12T17:16:42.506Z,72.08
2023-03-12T17:19:09.524Z,72.28
2023-03-12T17:21:37.417Z,72.69
2023-03-12T17:24:04.987Z,72.52
2023-03-12T17:26:32.474Z,72.97
2023-03-12T17:28:59.398Z,73.25
2023-03-12T17:31:26.497Z,73.45
2023-03-12T17:33:53.522Z,73.80
2023-03-12T17:36:20.518Z,73.87
2023-03-12T17:38:49.667Z,73.95
2023-03-12T17:41:25.893Z,74.70
2023-03-12T17:43:54.964Z,74.84
2023-03-12T17:46:22.033Z,75.39
2023-03-12T17:48:49.054Z,75.58
2023-03-12T17:51:15.981Z,76.44
2023-03-12T17:53:42.928Z,76.79
2023-03-12T17:56:12.420Z,77.20
2023-03-12T17:58:39.634Z,78.18
2023-03-12T18:01:06.687Z,78.67
2023-03-12T18:03:33.672Z,79.22
2023-03-12T18:06:01.125Z,79.47
2023-03-12T18:08:28.163Z,80.00
2023-03-12T18:10:55.442Z,80.46
2023-03-12T18:13:22.466Z,80.98
2023-03-12T18:15:57.864Z,81.14
2023-03-12T18:18:26.564Z,81.64
2023-03-12T18:20:53.856Z,82.25
2023-03-12T18:23:20.946Z,83.00
2023-03-12T18:25:47.911Z,83.21
2023-03-12T18:28:15.376Z,83.75
2023-03-12T18:30:44.873Z,84.36
2023-03-12T18:33:11.957Z,85.13
2023-03-12T18:35:39.070Z,85.81
2023-03-12T18:38:06.028Z,85.98
2023-03-12T18:40:33.225Z,86.69
2023-03-12T18:43:01.040Z,87.12
2023-03-12T18:45:29.083Z,87.82
2023-03-12T18:47:56.360Z,88.29
2023-03-12T18:50:23.454Z,89.02
2023-03-12T18:52:50.411Z,89.33
2023-03-12T18:55:17.720Z,90.16
2023-03-12T18:57:47.196Z,90.91
2023-03-12T19:00:19.704Z,91.24
2023-03-12T19:02:48.176Z,91.65
2023-03-12T19:05:15.440Z,92.04
2023-03-12T19:07:42.548Z,92.33
2023-03-12T19:10:11.087Z,92.77
2023-03-12T19:12:51.042Z,93.33
2023-03-12T19:15:21.404Z,93.66
2023-03-12T19:17:48.360Z,93.90
2023-03-12T19:20:15.701Z,94.42
2023-03-12T19:22:43.826Z,94.74
2023-03-12T19:25:10.783Z,95.13
2023-03-12T19:27:37.722Z,95.57
2023-03-12T19:30:05.793Z,95.68
2023-03-12T19:32:42.349Z,95.93
2023-03-12T19:35:12.523Z,96.40
2023-03-12T19:37:39.565Z,96.95
2023-03-12T19:40:10.678Z,97.00
2023-03-12T19:42:37.719Z,97.57
2023-03-12T19:45:05.962Z,97.42
2023-03-12T19:47:33.331Z,97.59
2023-03-12T19:50:00.748Z,97.88
2023-03-12T19:52:27.800Z,98.13
2023-03-12T19:55:04.267Z,98.43
2023-03-12T19:57:33.298Z,98.72
2023-03-12T20:00:00.253Z,99.20
2023-03-12T20:02:27.673Z,99.38
2023-03-12T20:04:55.483Z,99.60
2023-03-12T20:07:22.854Z,99.68
2023-03-12T20:09:50.071Z,99.82
2023-03-12T20:12:17.195Z,99.98
2023-03-12T20:14:44.190Z,100.00
2023-03-12T20:17:12.286Z,100.00
2023-03-12T20:19:39.824Z,100.00
2023-03-12T20:22:07.366Z,100.00
2023-03-12T20:24:34.942Z,100.00
2023-03-12T20:27:01.945Z,100.00
2023-03-12T20:29:28.854Z,100.00
2023-03-12T20:31:55.956Z,100.00
2023-03-12T20:34:23.299Z,100.00
2023-03-12T20:36:50.334Z,100.00
2023-03-12T20:39:18.026Z,100.00
2023-03-12T20:41:45.047Z,100.00
2023-03-12T20:44:12.858Z,100.00
2023-03-12T20:46:39.811Z,100.00
2023-03-12T20:49:06.699Z,100.00
2023-03-12T20:51:33.723Z,100.00
2023-03-12T20:54:00.639Z,100.00
2023-03-12T20:56:27.686Z,100.00
2023-03-12T20:58:54.698Z,100.00
2023-03-12T21:01:21.733Z,100.00
2023-03-12T21:03:48.783Z,100.00
2023-03-12T21:06:15.754Z,100.00
2023-03-12T21:08:42.652Z,100.00
2023-03-12T21:11:10.345Z,100.00
2023-03-12T21:13:37.627Z,100.00
2023-03-12T21:16:08.657Z,100.00
2023-03-12T21:18:35.917Z,100.00
2023-03-12T21:21:08.036Z,100.00
2023-03-12T21:23:35.259Z,100.00
2023-03-12T21:26:08.544Z,100.00
2023-03-12T21:28:36.118Z,100.00
2023-03-12T21:31:13.519Z,100.00
2023-03-12T21:33:40.884Z,100.00
2023-03-12T21:36:11.696Z,100.00
2023-03-12T21:38:40.814Z,100.00
2023-03-12T21:41:14.157Z,100.00
2023-03-12T21:43:41.890Z,100.00
2023-03-12T21:46:20.443Z,100.00
2023-03-12T21:48:48.424Z,100.00
2023-03-12T21:51:17.384Z,100.00
2023-03-12T21:53:44.900Z,100.00
2023-03-12T21:56:12.447Z,100.00
2023-03-12T21:58:39.701Z,100.00
2023-03-12T22:01:13.493Z,100.00
2023-03-12T22:03:42.383Z,100.00
2023-03-12T22:06:10.236Z,100.00
2023-03-12T22:08:37.761Z,100.00
2023-03-12T22:11:07.240Z,100.00
2023-03-12T22:13:34.534Z,100.00
2023-03-12T22:16:06.811Z,100.00
2023-03-12T22:18:45.207Z,100.00
2023-03-12T22:21:30.369Z,100.00
2023-03-12T22:23:57.510Z,100.00
2023-03-12T22:26:25.807Z,100.00
2023-03-12T22:28:57.158Z,100.00
2023-03-12T22:31:27.846Z,100.00
2023-03-12T22:33:55.370Z,100.00
2023-03-12T22:36:23.200Z,100.00
2023-03-12T22:38:50.792Z,100.00
2023-03-12T22:41:27.196Z,100.00
2023-03-12T22:43:57.296Z,100.00
2023-03-12T22:46:27.455Z,100.00
2023-03-12T22:48:57.872Z,100.00
2023-03-12T22:51:25.795Z,100.00
2023-03-12T22:53:52.938Z,100.00
2023-03-12T22:56:19.942Z,100.00
2023-03-12T22:58:47.340Z,100.00
2023-03-12T23:01:21.579Z,100.00
2023-03-12T23:03:50.292Z,100.00
2023-03-12T23:06:30.008Z,100.00
2023-03-12T23:08:57.360Z,100.00
2023-03-12T23:11:26.717Z,100.00
2023-03-12T23:13:54.101Z,100.00
2023-03-12T23:16:25.062Z,100.00
2023-03-12T23:18:52.210Z,100.00
2023-03-12T23:21:23.324Z,100.00
2023-03-12T23:23:51.613Z,100.00
2023-03-12T23:26:26.544Z,100.00
2023-03-12T23:28:58.857Z,100.00
2023-03-12T23:31:27.833Z,100.00
2023-03-12T23:33:56.126Z,100.00
2023-03-12T23:36:24.541Z,100.00
2023-03-12T23:38:51.771Z,100.00
2023-03-12T23:41:21.247Z,100.00
2023-03-12T23:43:49.105Z,100.00
2023-03-12T23:46:19.515Z,100.00
2023-03-12T23:48:46.969Z,100.00
2023-03-12T23:51:20.462Z,100.00
2023-03-12T23:53:50.631Z,100.00
2023-03-12T23:56:21.074Z,100.00
2023-03-12T23:58:50.040Z,100.00
